Terminal Aerodrome Forecast
Issued by NWS

Home | Current Version | Previous Version | Text Only | Print | Product List | Glossary On
Versions: 1 2 3 4 5 6 7 8 9 10 11 12 13 14 15 16 17 18
000
FTUS43 KMQT 240530
TAFSAW
TAF
KSAW 240530Z 2406/2506 36012G21KT P6SM -SHRA OVC025
     FM240800 36017G29KT 4SM -SHRA OVC015
     FM241200 35025G42KT 2SM +SHRA OVC007
     FM241800 35026G40KT 2SM -SHRA OVC009
     FM242300 34022G35KT 3SM -SHRASN OVC015
     FM250500 33016G27KT P6SM -SHSNRA OVC015=

USA.gov is the U.S. government's official web portal to all federal, state and local government web resources and services.